sensor_id;sensor_type;location;lat;lon;timestamp;temperature;humidity
792;DHT22;379;49.022;12.148;2022-10-16T00:00:45;14.20;99.90
792;DHT22;379;49.022;12.148;2022-10-16T00:03:11;14.30;99.90
792;DHT22;379;49.022;12.148;2022-10-16T00:05:39;14.30;99.90
792;DHT22;379;49.022;12.148;2022-10-16T00:08:06;14.20;99.90
792;DHT22;379;49.022;12.148;2022-10-16T00:10:33;14.20;99.90
792;DHT22;379;49.022;12.148;2022-10-16T00:13:00;14.20;99.90
792;DHT22;379;49.022;12.148;2022-10-16T00:15:28;14.30;99.90
792;DHT22;379;49.022;12.148;2022-10-16T00:17:55;14.30;99.90
792;DHT22;379;49.022;12.148;2022-10-16T00:20:22;14.30;99.90
792;DHT22;379;49.022;12.148;2022-10-16T00:22:49;14.20;99.90
792;DHT22;379;49.022;12.148;2022-10-16T00:25:16;14.20;99.90
792;DHT22;379;49.022;12.148;2022-10-16T00:27:42;14.20;99.90
792;DHT22;379;49.022;12.148;2022-10-16T00:30:09;14.10;99.90
792;DHT22;379;49.022;12.148;2022-10-16T00:32:38;14.10;99.90
792;DHT22;379;49.022;12.148;2022-10-16T00:35:05;14.10;99.90
792;DHT22;379;49.022;12.148;2022-10-16T00:37:32;14.20;99.90
792;DHT22;379;49.022;12.148;2022-10-16T00:39:58;14.20;99.90
792;DHT22;379;49.022;12.148;2022-10-16T00:42:25;14.20;99.90
792;DHT22;379;49.022;12.148;2022-10-16T00:44:54;14.20;99.90
792;DHT22;379;49.022;12.148;2022-10-16T00:47:24;14.20;99.90
792;DHT22;379;49.022;12.148;2022-10-16T00:50:00;14.20;99.90
792;DHT22;379;49.022;12.148;2022-10-16T00:52:28;14.20;99.90
792;DHT22;379;49.022;12.148;2022-10-16T00:54:56;14.20;99.90
792;DHT22;379;49.022;12.148;2022-10-16T00:57:23;14.20;99.90
792;DHT22;379;49.022;12.148;2022-10-16T00:59:51;14.20;99.90
792;DHT22;379;49.022;12.148;2022-10-16T01:02:18;14.20;99.90
792;DHT22;379;49.022;12.148;2022-10-16T01:04:48;14.20;99.90
792;DHT22;379;49.022;12.148;2022-10-16T01:07:24;14.20;99.90
792;DHT22;379;49.022;12.148;2022-10-16T01:10:00;14.20;99.90
792;DHT22;379;49.022;12.148;2022-10-16T01:12:38;14.10;99.90
792;DHT22;379;49.022;12.148;2022-10-16T01:15:10;14.00;99.90
792;DHT22;379;49.022;12.148;2022-10-16T01:17:43;14.10;99.90
792;DHT22;379;49.022;12.148;2022-10-16T01:20:17;14.10;99.90
792;DHT22;379;49.022;12.148;2022-10-16T01:22:59;14.00;99.90
792;DHT22;379;49.022;12.148;2022-10-16T01:25:39;14.00;99.90
792;DHT22;379;49.022;12.148;2022-10-16T01:28:15;14.00;99.90
792;DHT22;379;49.022;12.148;2022-10-16T01:30:44;14.00;99.90
792;DHT22;379;49.022;12.148;2022-10-16T01:33:17;13.90;99.90
792;DHT22;379;49.022;12.148;2022-10-16T01:35:48;14.00;99.90
792;DHT22;379;49.022;12.148;2022-10-16T01:38:20;14.10;99.90
792;DHT22;379;49.022;12.148;2022-10-16T01:40:51;14.10;99.90
792;DHT22;379;49.022;12.148;2022-10-16T01:43:25;14.10;99.90
792;DHT22;379;49.022;12.148;2022-10-16T01:45:53;14.10;99.90
792;DHT22;379;49.022;12.148;2022-10-16T01:48:21;14.10;99.90
792;DHT22;379;49.022;12.148;2022-10-16T01:50:54;14.00;99.90
792;DHT22;379;49.022;12.148;2022-10-16T01:53:22;14.00;99.90
792;DHT22;379;49.022;12.148;2022-10-16T01:55:50;14.00;99.90
792;DHT22;379;49.022;12.148;2022-10-16T01:58:18;14.00;99.90
792;DHT22;379;49.022;12.148;2022-10-16T02:00:47;14.00;99.90
792;DHT22;379;49.022;12.148;2022-10-16T02:03:16;14.00;99.90
792;DHT22;379;49.022;12.148;2022-10-16T02:05:46;14.10;99.90
792;DHT22;379;49.022;12.148;2022-10-16T02:08:13;14.00;99.90
792;DHT22;379;49.022;12.148;2022-10-16T02:10:40;14.10;99.90
792;DHT22;379;49.022;12.148;2022-10-16T02:13:10;14.00;99.90
792;DHT22;379;49.022;12.148;2022-10-16T02:15:38;14.00;99.90
792;DHT22;379;49.022;12.148;2022-10-16T02:18:07;14.00;99.90
792;DHT22;379;49.022;12.148;2022-10-16T02:20:38;13.90;99.90
792;DHT22;379;49.022;12.148;2022-10-16T02:23:07;13.90;99.90
792;DHT22;379;49.022;12.148;2022-10-16T02:25:41;13.90;99.90
792;DHT22;379;49.022;12.148;2022-10-16T02:28:14;13.90;99.90
792;DHT22;379;49.022;12.148;2022-10-16T02:30:46;13.90;99.90
792;DHT22;379;49.022;12.148;2022-10-16T02:33:16;13.90;99.90
792;DHT22;379;49.022;12.148;2022-10-16T02:35:45;13.90;99.90
792;DHT22;379;49.022;12.148;2022-10-16T02:38:14;13.90;99.90
792;DHT22;379;49.022;12.148;2022-10-16T02:40:41;13.90;99.90
792;DHT22;379;49.022;12.148;2022-10-16T02:43:09;13.90;99.90
792;DHT22;379;49.022;12.148;2022-10-16T02:45:36;13.90;99.90
792;DHT22;379;49.022;12.148;2022-10-16T02:48:03;13.90;99.90
792;DHT22;379;49.022;12.148;2022-10-16T02:50:31;13.80;99.90
792;DHT22;379;49.022;12.148;2022-10-16T02:52:57;13.80;99.90
792;DHT22;379;49.022;12.148;2022-10-16T02:55:24;13.80;99.90
792;DHT22;379;49.022;12.148;2022-10-16T02:57:51;13.80;99.90
792;DHT22;379;49.022;12.148;2022-10-16T03:00:18;13.90;99.90
792;DHT22;379;49.022;12.148;2022-10-16T03:02:45;13.90;99.90
792;DHT22;379;49.022;12.148;2022-10-16T03:05:12;13.80;99.90
792;DHT22;379;49.022;12.148;2022-10-16T03:07:40;13.90;99.90
792;DHT22;379;49.022;12.148;2022-10-16T03:10:08;13.90;99.90
792;DHT22;379;49.022;12.148;2022-10-16T03:12:35;13.90;99.90
792;DHT22;379;49.022;12.148;2022-10-16T03:15:02;13.90;99.90
792;DHT22;379;49.022;12.148;2022-10-16T03:17:28;13.90;99.90
792;DHT22;379;49.022;12.148;2022-10-16T03:19:55;13.90;99.90
792;DHT22;379;49.022;12.148;2022-10-16T03:22:22;13.90;99.90
792;DHT22;379;49.022;12.148;2022-10-16T03:24:50;13.90;99.90
792;DHT22;379;49.022;12.148;2022-10-16T03:27:16;13.90;99.90
792;DHT22;379;49.022;12.148;2022-10-16T03:29:43;13.90;99.90
792;DHT22;379;49.022;12.148;2022-10-16T03:32:10;13.90;99.90
792;DHT22;379;49.022;12.148;2022-10-16T03:34:36;13.90;99.90
792;DHT22;379;49.022;12.148;2022-10-16T03:37:04;13.90;99.90
792;DHT22;379;49.022;12.148;2022-10-16T03:39:30;13.90;99.90
792;DHT22;379;49.022;12.148;2022-10-16T03:41:58;13.90;99.90
792;DHT22;379;49.022;12.148;2022-10-16T03:44:25;13.90;99.90
792;DHT22;379;49.022;12.148;2022-10-16T03:46:52;13.90;99.90
792;DHT22;379;49.022;12.148;2022-10-16T03:49:18;13.90;99.90
792;DHT22;379;49.022;12.148;2022-10-16T03:51:45;13.90;99.90
792;DHT22;379;49.022;12.148;2022-10-16T03:54:12;13.90;99.90
792;DHT22;379;49.022;12.148;2022-10-16T03:56:39;13.90;99.90
792;DHT22;379;49.022;12.148;2022-10-16T03:59:07;13.90;99.90
792;DHT22;379;49.022;12.148;2022-10-16T04:01:33;14.00;99.90
792;DHT22;379;49.022;12.148;2022-10-16T04:04:00;14.00;99.90
792;DHT22;379;49.022;12.148;2022-10-16T04:06:27;13.90;99.90
792;DHT22;379;49.022;12.148;2022-10-16T04:08:53;13.90;99.90
792;DHT22;379;49.022;12.148;2022-10-16T04:11:20;13.80;99.90
792;DHT22;379;49.022;12.148;2022-10-16T04:13:47;13.70;99.90
792;DHT22;379;49.022;12.148;2022-10-16T04:16:15;13.60;99.90
792;DHT22;379;49.022;12.148;2022-10-16T04:18:42;13.60;99.90
792;DHT22;379;49.022;12.148;2022-10-16T04:21:08;13.50;99.90
792;DHT22;379;49.022;12.148;2022-10-16T04:23:35;13.50;99.90
792;DHT22;379;49.022;12.148;2022-10-16T04:26:02;13.50;99.90
792;DHT22;379;49.022;12.148;2022-10-16T04:28:28;13.60;99.90
792;DHT22;379;49.022;12.148;2022-10-16T04:30:55;13.60;99.90
792;DHT22;379;49.022;12.148;2022-10-16T04:33:23;13.60;99.90
792;DHT22;379;49.022;12.148;2022-10-16T04:35:56;13.60;99.90
792;DHT22;379;49.022;12.148;2022-10-16T04:38:23;13.70;99.90
792;DHT22;379;49.022;12.148;2022-10-16T04:40:49;13.70;99.90
792;DHT22;379;49.022;12.148;2022-10-16T04:43:16;13.70;99.90
792;DHT22;379;49.022;12.148;2022-10-16T04:45:43;13.80;99.90
792;DHT22;379;49.022;12.148;2022-10-16T04:48:10;13.80;99.90
792;DHT22;379;49.022;12.148;2022-10-16T04:50:38;13.70;99.90
792;DHT22;379;49.022;12.148;2022-10-16T04:53:05;13.80;99.90
792;DHT22;379;49.022;12.148;2022-10-16T04:55:32;13.80;99.90
792;DHT22;379;49.022;12.148;2022-10-16T04:57:59;13.80;99.90
792;DHT22;379;49.022;12.148;2022-10-16T05:00:25;13.80;99.90
792;DHT22;379;49.022;12.148;2022-10-16T05:02:52;13.80;99.90
792;DHT22;379;49.022;12.148;2022-10-16T05:05:19;13.70;99.90
792;DHT22;379;49.022;12.148;2022-10-16T05:07:47;13.70;99.90
792;DHT22;379;49.022;12.148;2022-10-16T05:10:15;13.70;99.90
792;DHT22;379;49.022;12.148;2022-10-16T05:12:42;13.60;99.90
792;DHT22;379;49.022;12.148;2022-10-16T05:15:09;13.50;99.90
792;DHT22;379;49.022;12.148;2022-10-16T05:17:36;13.60;99.90
792;DHT22;379;49.022;12.148;2022-10-16T05:20:03;13.60;99.90
792;DHT22;379;49.022;12.148;2022-10-16T05:22:30;13.60;99.90
792;DHT22;379;49.022;12.148;2022-10-16T05:24:58;13.60;99.90
792;DHT22;379;49.022;12.148;2022-10-16T05:27:25;13.70;99.90
792;DHT22;379;49.022;12.148;2022-10-16T05:29:52;13.60;99.90
792;DHT22;379;49.022;12.148;2022-10-16T05:32:19;13.60;99.90
792;DHT22;379;49.022;12.148;2022-10-16T05:34:46;13.70;99.90
792;DHT22;379;49.022;12.148;2022-10-16T05:37:12;13.70;99.90
792;DHT22;379;49.022;12.148;2022-10-16T05:39:39;13.60;99.90
792;DHT22;379;49.022;12.148;2022-10-16T05:42:07;13.60;99.90
792;DHT22;379;49.022;12.148;2022-10-16T05:44:34;13.60;99.90
792;DHT22;379;49.022;12.148;2022-10-16T05:47:01;13.70;99.90
792;DHT22;379;49.022;12.148;2022-10-16T05:49:27;13.70;99.90
792;DHT22;379;49.022;12.148;2022-10-16T05:51:54;13.70;99.90
792;DHT22;379;49.022;12.148;2022-10-16T05:54:21;13.80;99.90
792;DHT22;379;49.022;12.148;2022-10-16T05:56:47;13.80;99.90
792;DHT22;379;49.022;12.148;2022-10-16T05:59:15;13.90;99.90
792;DHT22;379;49.022;12.148;2022-10-16T06:01:42;13.90;99.90
792;DHT22;379;49.022;12.148;2022-10-16T06:04:09;13.80;99.90
792;DHT22;379;49.022;12.148;2022-10-16T06:06:36;13.80;99.90
792;DHT22;379;49.022;12.148;2022-10-16T06:09:03;13.80;99.90
792;DHT22;379;49.022;12.148;2022-10-16T06:11:31;13.80;99.90
792;DHT22;379;49.022;12.148;2022-10-16T06:14:00;13.70;99.90
792;DHT22;379;49.022;12.148;2022-10-16T06:16:29;13.60;99.90
792;DHT22;379;49.022;12.148;2022-10-16T06:18:56;13.60;99.90
792;DHT22;379;49.022;12.148;2022-10-16T06:21:25;13.60;99.90
792;DHT22;379;49.022;12.148;2022-10-16T06:23:53;13.60;99.90
792;DHT22;379;49.022;12.148;2022-10-16T06:26:22;13.70;99.90
792;DHT22;379;49.022;12.148;2022-10-16T06:28:49;13.70;99.90
792;DHT22;379;49.022;12.148;2022-10-16T06:31:16;13.80;99.90
792;DHT22;379;49.022;12.148;2022-10-16T06:33:45;13.90;99.90
792;DHT22;379;49.022;12.148;2022-10-16T06:36:13;13.90;99.90
792;DHT22;379;49.022;12.148;2022-10-16T06:38:41;13.90;99.90
792;DHT22;379;49.022;12.148;2022-10-16T06:41:11;14.00;99.90
792;DHT22;379;49.022;12.148;2022-10-16T06:43:38;14.10;99.90
792;DHT22;379;49.022;12.148;2022-10-16T06:46:06;14.20;99.90
792;DHT22;379;49.022;12.148;2022-10-16T06:48:34;14.20;99.90
792;DHT22;379;49.022;12.148;2022-10-16T06:51:04;14.30;99.90
792;DHT22;379;49.022;12.148;2022-10-16T06:53:33;14.30;99.90
792;DHT22;379;49.022;12.148;2022-10-16T06:56:07;14.40;99.90
792;DHT22;379;49.022;12.148;2022-10-16T06:58:33;14.40;99.90
792;DHT22;379;49.022;12.148;2022-10-16T07:01:00;14.50;99.90
792;DHT22;379;49.022;12.148;2022-10-16T07:03:27;14.50;99.90
792;DHT22;379;49.022;12.148;2022-10-16T07:05:54;14.50;99.90
792;DHT22;379;49.022;12.148;2022-10-16T07:08:23;14.60;99.90
792;DHT22;379;49.022;12.148;2022-10-16T07:10:58;14.60;99.90
792;DHT22;379;49.022;12.148;2022-10-16T07:13:25;14.60;99.90
792;DHT22;379;49.022;12.148;2022-10-16T07:15:51;14.70;99.90
792;DHT22;379;49.022;12.148;2022-10-16T07:18:18;14.70;99.90
792;DHT22;379;49.022;12.148;2022-10-16T07:20:45;14.80;99.90
792;DHT22;379;49.022;12.148;2022-10-16T07:23:12;14.90;99.90
792;DHT22;379;49.022;12.148;2022-10-16T07:25:40;15.10;99.90
792;DHT22;379;49.022;12.148;2022-10-16T07:28:06;15.30;99.90
792;DHT22;379;49.022;12.148;2022-10-16T07:30:34;15.50;99.90
792;DHT22;379;49.022;12.148;2022-10-16T07:33:01;15.60;99.90
792;DHT22;379;49.022;12.148;2022-10-16T07:35:28;15.70;99.90
792;DHT22;379;49.022;12.148;2022-10-16T07:37:55;15.80;99.90
792;DHT22;379;49.022;12.148;2022-10-16T07:40:21;15.90;99.90
792;DHT22;379;49.022;12.148;2022-10-16T07:42:49;15.90;99.90
792;DHT22;379;49.022;12.148;2022-10-16T07:45:16;16.00;99.90
792;DHT22;379;49.022;12.148;2022-10-16T07:47:43;16.00;99.90
792;DHT22;379;49.022;12.148;2022-10-16T07:50:09;16.10;99.90
792;DHT22;379;49.022;12.148;2022-10-16T07:52:36;16.30;99.90
792;DHT22;379;49.022;12.148;2022-10-16T07:55:03;16.50;99.90
792;DHT22;379;49.022;12.148;2022-10-16T07:57:30;16.60;99.90
792;DHT22;379;49.022;12.148;2022-10-16T07:59:58;16.90;99.90
792;DHT22;379;49.022;12.148;2022-10-16T08:02:25;17.20;99.90
792;DHT22;379;49.022;12.148;2022-10-16T08:04:51;17.40;99.90
792;DHT22;379;49.022;12.148;2022-10-16T08:07:18;17.50;99.90
792;DHT22;379;49.022;12.148;2022-10-16T08:09:49;17.40;99.90
792;DHT22;379;49.022;12.148;2022-10-16T08:12:15;17.40;99.90
792;DHT22;379;49.022;12.148;2022-10-16T08:14:42;17.30;99.90
792;DHT22;379;49.022;12.148;2022-10-16T08:17:13;17.20;99.90
792;DHT22;379;49.022;12.148;2022-10-16T08:19:43;17.30;99.90
792;DHT22;379;49.022;12.148;2022-10-16T08:22:10;17.30;99.90
792;DHT22;379;49.022;12.148;2022-10-16T08:24:36;17.30;99.90
792;DHT22;379;49.022;12.148;2022-10-16T08:27:03;17.50;99.90
792;DHT22;379;49.022;12.148;2022-10-16T08:29:30;17.70;99.90
792;DHT22;379;49.022;12.148;2022-10-16T08:31:57;17.90;99.90
792;DHT22;379;49.022;12.148;2022-10-16T08:34:25;18.00;99.90
792;DHT22;379;49.022;12.148;2022-10-16T08:36:53;18.00;99.90
792;DHT22;379;49.022;12.148;2022-10-16T08:39:19;18.00;99.90
792;DHT22;379;49.022;12.148;2022-10-16T08:42:05;17.90;99.90
792;DHT22;379;49.022;12.148;2022-10-16T08:45:02;17.80;99.90
792;DHT22;379;49.022;12.148;2022-10-16T08:47:43;17.80;99.90
792;DHT22;379;49.022;12.148;2022-10-16T08:50:14;17.70;99.90
792;DHT22;379;49.022;12.148;2022-10-16T08:52:44;17.50;99.90
792;DHT22;379;49.022;12.148;2022-10-16T08:55:20;17.40;99.90
792;DHT22;379;49.022;12.148;2022-10-16T08:57:50;17.20;99.90
792;DHT22;379;49.022;12.148;2022-10-16T09:00:17;17.00;99.90
792;DHT22;379;49.022;12.148;2022-10-16T09:02:50;16.90;99.90
792;DHT22;379;49.022;12.148;2022-10-16T09:05:29;16.80;99.90
792;DHT22;379;49.022;12.148;2022-10-16T09:08:06;16.80;99.90
792;DHT22;379;49.022;12.148;2022-10-16T09:10:42;16.90;99.90
792;DHT22;379;49.022;12.148;2022-10-16T09:13:17;17.00;99.90
792;DHT22;379;49.022;12.148;2022-10-16T09:15:49;17.10;99.90
792;DHT22;379;49.022;12.148;2022-10-16T09:18:25;17.20;99.90
792;DHT22;379;49.022;12.148;2022-10-16T09:21:00;17.20;99.90
792;DHT22;379;49.022;12.148;2022-10-16T09:23:30;17.30;99.90
792;DHT22;379;49.022;12.148;2022-10-16T09:25:58;17.40;99.90
792;DHT22;379;49.022;12.148;2022-10-16T09:28:25;17.50;99.90
792;DHT22;379;49.022;12.148;2022-10-16T09:30:52;17.60;99.90
792;DHT22;379;49.022;12.148;2022-10-16T09:33:21;17.80;99.90
792;DHT22;379;49.022;12.148;2022-10-16T09:35:50;17.90;99.90
792;DHT22;379;49.022;12.148;2022-10-16T09:38:25;18.10;99.90
792;DHT22;379;49.022;12.148;2022-10-16T09:40:53;18.10;99.90
792;DHT22;379;49.022;12.148;2022-10-16T09:43:23;18.20;99.90
792;DHT22;379;49.022;12.148;2022-10-16T09:45:57;18.30;99.90
792;DHT22;379;49.022;12.148;2022-10-16T09:48:28;18.30;99.90
792;DHT22;379;49.022;12.148;2022-10-16T09:50:56;18.30;99.90
792;DHT22;379;49.022;12.148;2022-10-16T09:53:40;18.40;99.90
792;DHT22;379;49.022;12.148;2022-10-16T09:56:07;18.40;99.90
792;DHT22;379;49.022;12.148;2022-10-16T09:58:35;18.50;99.90
792;DHT22;379;49.022;12.148;2022-10-16T10:01:03;18.50;99.90
792;DHT22;379;49.022;12.148;2022-10-16T10:03:38;18.50;99.90
792;DHT22;379;49.022;12.148;2022-10-16T10:06:16;18.50;99.90
792;DHT22;379;49.022;12.148;2022-10-16T10:08:55;18.50;99.90
792;DHT22;379;49.022;12.148;2022-10-16T10:11:47;18.50;99.90
792;DHT22;379;49.022;12.148;2022-10-16T10:14:18;18.50;99.90
792;DHT22;379;49.022;12.148;2022-10-16T10:16:46;18.60;99.90
792;DHT22;379;49.022;12.148;2022-10-16T10:19:15;18.70;99.90
792;DHT22;379;49.022;12.148;2022-10-16T10:21:42;18.70;99.90
792;DHT22;379;49.022;12.148;2022-10-16T10:24:12;18.70;99.90
792;DHT22;379;49.022;12.148;2022-10-16T10:26:44;18.70;99.90
792;DHT22;379;49.022;12.148;2022-10-16T10:29:23;18.70;99.90
792;DHT22;379;49.022;12.148;2022-10-16T10:32:03;18.70;99.90
792;DHT22;379;49.022;12.148;2022-10-16T10:34:45;18.70;99.90
792;DHT22;379;49.022;12.148;2022-10-16T10:40:16;18.60;99.90
792;DHT22;379;49.022;12.148;2022-10-16T10:42:50;18.60;99.90
792;DHT22;379;49.022;12.148;2022-10-16T10:45:26;18.60;99.90
792;DHT22;379;49.022;12.148;2022-10-16T10:48:03;18.70;99.90
792;DHT22;379;49.022;12.148;2022-10-16T10:50:38;18.90;99.90
792;DHT22;379;49.022;12.148;2022-10-16T10:53:17;19.10;99.90
792;DHT22;379;49.022;12.148;2022-10-16T10:55:52;19.20;99.90
792;DHT22;379;49.022;12.148;2022-10-16T10:58:38;19.40;99.90
792;DHT22;379;49.022;12.148;2022-10-16T11:01:09;19.40;99.90
792;DHT22;379;49.022;12.148;2022-10-16T11:04:06;19.60;99.90
792;DHT22;379;49.022;12.148;2022-10-16T11:06:41;19.70;99.90
792;DHT22;379;49.022;12.148;2022-10-16T11:09:13;19.90;99.90
792;DHT22;379;49.022;12.148;2022-10-16T11:11:46;20.10;99.90
792;DHT22;379;49.022;12.148;2022-10-16T11:14:19;20.30;98.60
792;DHT22;379;49.022;12.148;2022-10-16T11:16:51;20.60;97.90
792;DHT22;379;49.022;12.148;2022-10-16T11:19:28;20.80;97.80
792;DHT22;379;49.022;12.148;2022-10-16T11:24:37;21.10;95.30
792;DHT22;379;49.022;12.148;2022-10-16T11:27:14;21.20;94.90
792;DHT22;379;49.022;12.148;2022-10-16T11:29:46;21.40;95.40
792;DHT22;379;49.022;12.148;2022-10-16T11:32:22;21.60;95.00
792;DHT22;379;49.022;12.148;2022-10-16T11:34:53;21.80;93.50
792;DHT22;379;49.022;12.148;2022-10-16T11:37:26;21.90;92.30
792;DHT22;379;49.022;12.148;2022-10-16T11:40:04;22.00;91.30
792;DHT22;379;49.022;12.148;2022-10-16T11:42:37;22.00;90.50
792;DHT22;379;49.022;12.148;2022-10-16T11:45:16;21.90;90.20
792;DHT22;379;49.022;12.148;2022-10-16T11:47:54;21.80;90.50
792;DHT22;379;49.022;12.148;2022-10-16T11:50:26;21.90;90.50
792;DHT22;379;49.022;12.148;2022-10-16T11:52:59;22.10;90.70
792;DHT22;379;49.022;12.148;2022-10-16T11:55:29;22.10;90.20
792;DHT22;379;49.022;12.148;2022-10-16T11:58:03;22.00;90.10
792;DHT22;379;49.022;12.148;2022-10-16T12:00:34;21.80;90.10
792;DHT22;379;49.022;12.148;2022-10-16T12:03:11;21.50;90.20
792;DHT22;379;49.022;12.148;2022-10-16T12:05:55;21.30;91.10
792;DHT22;379;49.022;12.148;2022-10-16T12:08:25;21.00;91.30
792;DHT22;379;49.022;12.148;2022-10-16T12:10:52;20.90;91.90
792;DHT22;379;49.022;12.148;2022-10-16T12:13:33;20.80;91.40
792;DHT22;379;49.022;12.148;2022-10-16T12:16:05;20.80;91.70
792;DHT22;379;49.022;12.148;2022-10-16T12:18:32;20.70;92.00
792;DHT22;379;49.022;12.148;2022-10-16T12:20:59;20.70;92.20
792;DHT22;379;49.022;12.148;2022-10-16T12:23:32;20.80;92.80
792;DHT22;379;49.022;12.148;2022-10-16T12:26:00;21.00;92.90
792;DHT22;379;49.022;12.148;2022-10-16T12:28:29;21.10;92.00
792;DHT22;379;49.022;12.148;2022-10-16T12:31:00;21.00;91.90
792;DHT22;379;49.022;12.148;2022-10-16T12:33:29;20.90;92.40
792;DHT22;379;49.022;12.148;2022-10-16T12:35:57;20.90;92.30
792;DHT22;379;49.022;12.148;2022-10-16T12:38:26;20.80;92.80
792;DHT22;379;49.022;12.148;2022-10-16T12:40:58;20.70;92.60
792;DHT22;379;49.022;12.148;2022-10-16T12:43:37;20.60;92.70
792;DHT22;379;49.022;12.148;2022-10-16T12:46:23;20.60;93.10
792;DHT22;379;49.022;12.148;2022-10-16T12:48:50;20.60;93.00
792;DHT22;379;49.022;12.148;2022-10-16T12:51:25;20.50;93.40
792;DHT22;379;49.022;12.148;2022-10-16T12:54:00;20.40;93.90
792;DHT22;379;49.022;12.148;2022-10-16T12:56:35;20.40;94.00
792;DHT22;379;49.022;12.148;2022-10-16T12:59:12;20.40;94.10
792;DHT22;379;49.022;12.148;2022-10-16T13:01:56;20.40;94.10
792;DHT22;379;49.022;12.148;2022-10-16T13:04:51;20.50;94.10
792;DHT22;379;49.022;12.148;2022-10-16T13:07:37;20.50;93.90
792;DHT22;379;49.022;12.148;2022-10-16T13:10:17;20.60;93.30
792;DHT22;379;49.022;12.148;2022-10-16T13:13:14;20.60;93.70
792;DHT22;379;49.022;12.148;2022-10-16T13:15:59;20.60;93.40
792;DHT22;379;49.022;12.148;2022-10-16T13:18:41;20.50;93.00
792;DHT22;379;49.022;12.148;2022-10-16T13:21:19;20.40;93.80
792;DHT22;379;49.022;12.148;2022-10-16T13:23:55;20.40;93.00
792;DHT22;379;49.022;12.148;2022-10-16T13:26:31;20.40;93.70
792;DHT22;379;49.022;12.148;2022-10-16T13:29:01;20.40;93.70
792;DHT22;379;49.022;12.148;2022-10-16T13:31:28;20.50;94.10
792;DHT22;379;49.022;12.148;2022-10-16T13:33:58;20.50;94.10
792;DHT22;379;49.022;12.148;2022-10-16T13:36:28;20.50;94.40
792;DHT22;379;49.022;12.148;2022-10-16T13:39:01;20.50;94.30
792;DHT22;379;49.022;12.148;2022-10-16T13:41:31;20.40;93.80
792;DHT22;379;49.022;12.148;2022-10-16T13:43:57;20.40;94.20
792;DHT22;379;49.022;12.148;2022-10-16T13:46:25;20.40;94.40
792;DHT22;379;49.022;12.148;2022-10-16T13:49:00;20.40;94.20
792;DHT22;379;49.022;12.148;2022-10-16T13:51:28;20.50;94.00
792;DHT22;379;49.022;12.148;2022-10-16T13:53:56;20.50;94.30
792;DHT22;379;49.022;12.148;2022-10-16T13:56:25;20.50;94.10
792;DHT22;379;49.022;12.148;2022-10-16T13:58:59;20.40;94.30
792;DHT22;379;49.022;12.148;2022-10-16T14:01:28;20.40;94.40
792;DHT22;379;49.022;12.148;2022-10-16T14:04:02;20.40;94.30
792;DHT22;379;49.022;12.148;2022-10-16T14:06:31;20.30;94.30
792;DHT22;379;49.022;12.148;2022-10-16T14:09:00;20.30;94.50
792;DHT22;379;49.022;12.148;2022-10-16T14:11:28;20.20;94.90
792;DHT22;379;49.022;12.148;2022-10-16T14:13:55;20.20;95.40
792;DHT22;379;49.022;12.148;2022-10-16T14:16:24;20.10;95.60
792;DHT22;379;49.022;12.148;2022-10-16T14:18:56;20.10;95.60
792;DHT22;379;49.022;12.148;2022-10-16T14:21:25;20.20;95.70
792;DHT22;379;49.022;12.148;2022-10-16T14:23:53;20.20;96.00
792;DHT22;379;49.022;12.148;2022-10-16T14:26:22;20.20;96.20
792;DHT22;379;49.022;12.148;2022-10-16T14:29:02;20.20;96.30
792;DHT22;379;49.022;12.148;2022-10-16T14:31:31;20.20;96.20
792;DHT22;379;49.022;12.148;2022-10-16T14:33:59;20.20;95.80
792;DHT22;379;49.022;12.148;2022-10-16T14:36:27;20.10;95.80
792;DHT22;379;49.022;12.148;2022-10-16T14:39:02;20.10;95.60
792;DHT22;379;49.022;12.148;2022-10-16T14:41:31;20.10;95.60
792;DHT22;379;49.022;12.148;2022-10-16T14:44:02;20.00;95.90
792;DHT22;379;49.022;12.148;2022-10-16T14:46:33;20.00;96.10
792;DHT22;379;49.022;12.148;2022-10-16T14:49:04;20.00;96.10
792;DHT22;379;49.022;12.148;2022-10-16T14:51:42;20.00;96.10
792;DHT22;379;49.022;12.148;2022-10-16T14:54:10;20.00;96.30
792;DHT22;379;49.022;12.148;2022-10-16T14:56:44;19.90;96.40
792;DHT22;379;49.022;12.148;2022-10-16T14:59:15;19.90;96.00
792;DHT22;379;49.022;12.148;2022-10-16T15:01:43;19.80;96.40
792;DHT22;379;49.022;12.148;2022-10-16T15:04:11;19.60;96.80
792;DHT22;379;49.022;12.148;2022-10-16T15:06:40;19.60;97.00
792;DHT22;379;49.022;12.148;2022-10-16T15:09:06;19.50;97.20
792;DHT22;379;49.022;12.148;2022-10-16T15:11:33;19.40;97.70
792;DHT22;379;49.022;12.148;2022-10-16T15:14:00;19.40;97.80
792;DHT22;379;49.022;12.148;2022-10-16T15:16:27;19.40;98.20
792;DHT22;379;49.022;12.148;2022-10-16T15:18:54;19.30;98.40
792;DHT22;379;49.022;12.148;2022-10-16T15:21:22;19.30;98.50
792;DHT22;379;49.022;12.148;2022-10-16T15:23:52;19.30;99.10
792;DHT22;379;49.022;12.148;2022-10-16T15:26:18;19.20;99.10
792;DHT22;379;49.022;12.148;2022-10-16T15:28:45;19.20;99.10
792;DHT22;379;49.022;12.148;2022-10-16T15:31:12;19.20;98.90
792;DHT22;379;49.022;12.148;2022-10-16T15:33:39;19.20;99.30
792;DHT22;379;49.022;12.148;2022-10-16T15:36:06;19.10;99.40
792;DHT22;379;49.022;12.148;2022-10-16T15:38:33;19.00;99.50
792;DHT22;379;49.022;12.148;2022-10-16T15:41:01;19.00;99.90
792;DHT22;379;49.022;12.148;2022-10-16T15:43:28;18.80;99.90
792;DHT22;379;49.022;12.148;2022-10-16T15:45:59;18.70;99.90
792;DHT22;379;49.022;12.148;2022-10-16T15:48:27;18.60;99.90
792;DHT22;379;49.022;12.148;2022-10-16T15:50:53;18.50;99.90
792;DHT22;379;49.022;12.148;2022-10-16T15:53:20;18.40;99.90
792;DHT22;379;49.022;12.148;2022-10-16T15:55:47;18.30;99.90
792;DHT22;379;49.022;12.148;2022-10-16T15:58:15;18.20;99.90
792;DHT22;379;49.022;12.148;2022-10-16T16:00:42;18.10;99.90
792;DHT22;379;49.022;12.148;2022-10-16T16:03:09;17.90;99.90
792;DHT22;379;49.022;12.148;2022-10-16T16:05:38;17.90;99.90
792;DHT22;379;49.022;12.148;2022-10-16T16:08:04;17.90;99.90
792;DHT22;379;49.022;12.148;2022-10-16T16:10:31;17.80;99.90
792;DHT22;379;49.022;12.148;2022-10-16T16:12:58;17.70;99.90
792;DHT22;379;49.022;12.148;2022-10-16T16:15:26;17.60;99.90
792;DHT22;379;49.022;12.148;2022-10-16T16:17:52;17.40;99.90
792;DHT22;379;49.022;12.148;2022-10-16T16:20:19;17.30;99.90
792;DHT22;379;49.022;12.148;2022-10-16T16:22:46;17.30;99.90
792;DHT22;379;49.022;12.148;2022-10-16T16:25:12;17.10;99.90
792;DHT22;379;49.022;12.148;2022-10-16T16:27:39;17.10;99.90
792;DHT22;379;49.022;12.148;2022-10-16T16:30:06;17.00;99.90
792;DHT22;379;49.022;12.148;2022-10-16T16:32:35;16.90;99.90
792;DHT22;379;49.022;12.148;2022-10-16T16:35:02;16.70;99.90
792;DHT22;379;49.022;12.148;2022-10-16T16:37:29;16.70;99.90
792;DHT22;379;49.022;12.148;2022-10-16T16:39:56;16.60;99.90